sensor_id;sensor_type;location;lat;lon;timestamp;P1;durP1;ratioP1;P2;durP2;ratioP2
70985;SDS011;58645;43.068;25.610;2023-09-18T00:01:55;7.10;;;3.20;;
70985;SDS011;58645;43.068;25.610;2023-09-18T00:04:20;5.70;;;3.13;;
70985;SDS011;58645;43.068;25.610;2023-09-18T00:06:46;4.78;;;3.10;;
70985;SDS011;58645;43.068;25.610;2023-09-18T00:09:12;7.03;;;3.45;;
70985;SDS011;58645;43.068;25.610;2023-09-18T00:11:39;5.93;;;3.97;;
70985;SDS011;58645;43.068;25.610;2023-09-18T00:14:05;6.35;;;3.58;;
70985;SDS011;58645;43.068;25.610;2023-09-18T00:16:32;8.02;;;4.22;;
70985;SDS011;58645;43.068;25.610;2023-09-18T00:18:58;7.10;;;3.35;;
70985;SDS011;58645;43.068;25.610;2023-09-18T00:21:24;5.43;;;3.22;;
70985;SDS011;58645;43.068;25.610;2023-09-18T00:26:16;5.88;;;3.33;;
70985;SDS011;58645;43.068;25.610;2023-09-18T00:28:42;7.28;;;3.60;;
70985;SDS011;58645;43.068;25.610;2023-09-18T00:31:08;7.40;;;3.50;;
70985;SDS011;58645;43.068;25.610;2023-09-18T00:33:34;7.35;;;3.72;;
70985;SDS011;58645;43.068;25.610;2023-09-18T00:36:00;8.00;;;3.88;;
70985;SDS011;58645;43.068;25.610;2023-09-18T00:38:26;10.00;;;3.33;;
70985;SDS011;58645;43.068;25.610;2023-09-18T00:40:52;8.50;;;3.47;;
70985;SDS011;58645;43.068;25.610;2023-09-18T00:43:18;6.53;;;4.07;;
70985;SDS011;58645;43.068;25.610;2023-09-18T00:45:47;5.03;;;3.30;;
70985;SDS011;58645;43.068;25.610;2023-09-18T00:48:17;10.13;;;3.70;;
70985;SDS011;58645;43.068;25.610;2023-09-18T00:50:46;6.85;;;3.60;;
70985;SDS011;58645;43.068;25.610;2023-09-18T00:53:14;7.13;;;3.55;;
70985;SDS011;58645;43.068;25.610;2023-09-18T00:55:43;9.63;;;5.53;;
70985;SDS011;58645;43.068;25.610;2023-09-18T00:58:09;11.18;;;4.60;;
70985;SDS011;58645;43.068;25.610;2023-09-18T01:00:35;7.65;;;4.95;;
70985;SDS011;58645;43.068;25.610;2023-09-18T01:03:02;8.27;;;4.80;;
70985;SDS011;58645;43.068;25.610;2023-09-18T01:05:34;10.20;;;6.20;;
70985;SDS011;58645;43.068;25.610;2023-09-18T01:08:01;8.63;;;5.35;;
70985;SDS011;58645;43.068;25.610;2023-09-18T01:10:32;14.57;;;7.57;;
70985;SDS011;58645;43.068;25.610;2023-09-18T01:13:04;9.23;;;5.25;;
70985;SDS011;58645;43.068;25.610;2023-09-18T01:16:02;19.45;;;7.43;;
70985;SDS011;58645;43.068;25.610;2023-09-18T01:18:33;16.05;;;7.50;;
70985;SDS011;58645;43.068;25.610;2023-09-18T01:20:59;15.57;;;10.07;;
70985;SDS011;58645;43.068;25.610;2023-09-18T01:23:24;16.42;;;10.50;;
70985;SDS011;58645;43.068;25.610;2023-09-18T01:25:50;18.38;;;9.05;;
70985;SDS011;58645;43.068;25.610;2023-09-18T01:28:16;17.55;;;11.02;;
70985;SDS011;58645;43.068;25.610;2023-09-18T01:30:41;17.58;;;9.27;;
70985;SDS011;58645;43.068;25.610;2023-09-18T01:33:08;18.02;;;9.45;;
70985;SDS011;58645;43.068;25.610;2023-09-18T01:35:35;15.10;;;8.40;;
70985;SDS011;58645;43.068;25.610;2023-09-18T01:38:02;16.88;;;8.85;;
70985;SDS011;58645;43.068;25.610;2023-09-18T01:40:28;13.68;;;8.25;;
70985;SDS011;58645;43.068;25.610;2023-09-18T01:42:55;12.75;;;8.25;;
70985;SDS011;58645;43.068;25.610;2023-09-18T01:45:20;10.95;;;6.82;;
70985;SDS011;58645;43.068;25.610;2023-09-18T01:47:46;12.00;;;7.20;;
70985;SDS011;58645;43.068;25.610;2023-09-18T01:50:12;17.38;;;7.90;;
70985;SDS011;58645;43.068;25.610;2023-09-18T01:52:38;20.50;;;8.95;;
70985;SDS011;58645;43.068;25.610;2023-09-18T01:55:04;20.13;;;9.52;;
70985;SDS011;58645;43.068;25.610;2023-09-18T01:57:31;23.20;;;12.60;;
70985;SDS011;58645;43.068;25.610;2023-09-18T01:59:56;18.10;;;9.98;;
70985;SDS011;58645;43.068;25.610;2023-09-18T02:02:22;19.27;;;10.27;;
70985;SDS011;58645;43.068;25.610;2023-09-18T02:04:49;13.75;;;8.55;;
70985;SDS011;58645;43.068;25.610;2023-09-18T02:07:14;16.45;;;9.48;;
70985;SDS011;58645;43.068;25.610;2023-09-18T02:09:40;18.13;;;8.93;;
70985;SDS011;58645;43.068;25.610;2023-09-18T02:12:06;15.77;;;8.15;;
70985;SDS011;58645;43.068;25.610;2023-09-18T02:14:32;14.25;;;8.27;;
70985;SDS011;58645;43.068;25.610;2023-09-18T02:16:59;13.75;;;7.78;;
70985;SDS011;58645;43.068;25.610;2023-09-18T02:19:25;15.75;;;7.38;;
70985;SDS011;58645;43.068;25.610;2023-09-18T02:21:51;13.27;;;8.35;;
70985;SDS011;58645;43.068;25.610;2023-09-18T02:24:17;15.52;;;7.38;;
70985;SDS011;58645;43.068;25.610;2023-09-18T02:26:43;16.17;;;8.35;;
70985;SDS011;58645;43.068;25.610;2023-09-18T02:29:10;11.82;;;6.88;;
70985;SDS011;58645;43.068;25.610;2023-09-18T02:34:02;14.25;;;7.18;;
70985;SDS011;58645;43.068;25.610;2023-09-18T02:36:28;12.40;;;7.32;;
70985;SDS011;58645;43.068;25.610;2023-09-18T02:38:54;12.18;;;7.95;;
70985;SDS011;58645;43.068;25.610;2023-09-18T02:41:20;13.73;;;7.60;;
70985;SDS011;58645;43.068;25.610;2023-09-18T02:43:45;14.07;;;8.98;;
70985;SDS011;58645;43.068;25.610;2023-09-18T02:46:11;13.18;;;6.93;;
70985;SDS011;58645;43.068;25.610;2023-09-18T02:48:37;12.45;;;7.07;;
70985;SDS011;58645;43.068;25.610;2023-09-18T02:51:03;14.15;;;7.22;;
70985;SDS011;58645;43.068;25.610;2023-09-18T02:55:55;12.18;;;7.03;;
70985;SDS011;58645;43.068;25.610;2023-09-18T02:58:22;12.65;;;6.82;;
70985;SDS011;58645;43.068;25.610;2023-09-18T03:00:51;12.98;;;6.30;;
70985;SDS011;58645;43.068;25.610;2023-09-18T03:03:22;10.30;;;5.80;;
70985;SDS011;58645;43.068;25.610;2023-09-18T03:05:48;10.82;;;5.80;;
70985;SDS011;58645;43.068;25.610;2023-09-18T03:08:14;9.98;;;6.10;;
70985;SDS011;58645;43.068;25.610;2023-09-18T03:10:41;16.42;;;5.75;;
70985;SDS011;58645;43.068;25.610;2023-09-18T03:13:08;9.68;;;5.80;;
70985;SDS011;58645;43.068;25.610;2023-09-18T03:15:35;10.30;;;6.75;;
70985;SDS011;58645;43.068;25.610;2023-09-18T03:18:02;12.23;;;6.25;;
70985;SDS011;58645;43.068;25.610;2023-09-18T03:20:29;10.73;;;6.07;;
70985;SDS011;58645;43.068;25.610;2023-09-18T03:22:59;12.02;;;6.05;;
70985;SDS011;58645;43.068;25.610;2023-09-18T03:25:26;10.82;;;6.22;;
70985;SDS011;58645;43.068;25.610;2023-09-18T03:27:53;12.52;;;5.15;;
70985;SDS011;58645;43.068;25.610;2023-09-18T03:30:20;8.75;;;5.70;;
70985;SDS011;58645;43.068;25.610;2023-09-18T03:32:47;9.05;;;5.45;;
70985;SDS011;58645;43.068;25.610;2023-09-18T03:35:16;11.50;;;5.40;;
70985;SDS011;58645;43.068;25.610;2023-09-18T03:37:45;11.57;;;5.65;;
70985;SDS011;58645;43.068;25.610;2023-09-18T03:40:11;9.85;;;5.07;;
70985;SDS011;58645;43.068;25.610;2023-09-18T03:42:37;9.13;;;5.22;;
70985;SDS011;58645;43.068;25.610;2023-09-18T03:45:04;10.05;;;5.00;;
70985;SDS011;58645;43.068;25.610;2023-09-18T03:47:31;8.57;;;4.75;;
70985;SDS011;58645;43.068;25.610;2023-09-18T03:49:58;10.60;;;5.47;;
70985;SDS011;58645;43.068;25.610;2023-09-18T03:52:24;10.70;;;5.43;;
70985;SDS011;58645;43.068;25.610;2023-09-18T03:54:49;8.38;;;5.43;;
70985;SDS011;58645;43.068;25.610;2023-09-18T03:57:16;7.28;;;4.13;;
70985;SDS011;58645;43.068;25.610;2023-09-18T03:59:42;6.65;;;4.50;;
70985;SDS011;58645;43.068;25.610;2023-09-18T04:02:07;10.48;;;4.60;;
70985;SDS011;58645;43.068;25.610;2023-09-18T04:04:33;8.88;;;5.28;;
70985;SDS011;58645;43.068;25.610;2023-09-18T04:06:59;8.38;;;4.90;;
70985;SDS011;58645;43.068;25.610;2023-09-18T04:09:24;10.27;;;4.78;;
70985;SDS011;58645;43.068;25.610;2023-09-18T04:11:50;9.45;;;5.13;;
70985;SDS011;58645;43.068;25.610;2023-09-18T04:14:16;9.02;;;6.15;;
70985;SDS011;58645;43.068;25.610;2023-09-18T04:16:42;12.77;;;6.43;;
70985;SDS011;58645;43.068;25.610;2023-09-18T04:19:09;13.52;;;7.43;;
70985;SDS011;58645;43.068;25.610;2023-09-18T04:21:35;15.50;;;7.95;;
70985;SDS011;58645;43.068;25.610;2023-09-18T04:24:01;16.08;;;7.95;;
70985;SDS011;58645;43.068;25.610;2023-09-18T04:26:27;13.07;;;7.35;;
70985;SDS011;58645;43.068;25.610;2023-09-18T04:28:56;13.65;;;8.23;;
70985;SDS011;58645;43.068;25.610;2023-09-18T04:31:22;11.15;;;6.47;;
70985;SDS011;58645;43.068;25.610;2023-09-18T04:33:48;13.32;;;6.45;;
70985;SDS011;58645;43.068;25.610;2023-09-18T04:36:15;8.85;;;6.10;;
70985;SDS011;58645;43.068;25.610;2023-09-18T04:38:41;10.40;;;6.85;;
70985;SDS011;58645;43.068;25.610;2023-09-18T04:41:06;10.18;;;6.68;;
70985;SDS011;58645;43.068;25.610;2023-09-18T04:43:35;12.82;;;5.60;;
70985;SDS011;58645;43.068;25.610;2023-09-18T04:46:03;9.85;;;6.32;;
70985;SDS011;58645;43.068;25.610;2023-09-18T04:48:30;10.35;;;5.63;;
70985;SDS011;58645;43.068;25.610;2023-09-18T04:50:57;9.20;;;5.63;;
70985;SDS011;58645;43.068;25.610;2023-09-18T04:53:23;9.05;;;6.10;;
70985;SDS011;58645;43.068;25.610;2023-09-18T04:55:49;8.32;;;5.43;;
70985;SDS011;58645;43.068;25.610;2023-09-18T04:58:15;10.55;;;6.70;;
70985;SDS011;58645;43.068;25.610;2023-09-18T05:00:44;9.43;;;5.03;;
70985;SDS011;58645;43.068;25.610;2023-09-18T05:03:26;9.05;;;5.47;;
70985;SDS011;58645;43.068;25.610;2023-09-18T05:05:54;10.02;;;5.25;;
70985;SDS011;58645;43.068;25.610;2023-09-18T05:08:20;8.20;;;6.55;;
70985;SDS011;58645;43.068;25.610;2023-09-18T05:10:45;9.48;;;7.43;;
70985;SDS011;58645;43.068;25.610;2023-09-18T05:13:16;9.85;;;6.72;;
70985;SDS011;58645;43.068;25.610;2023-09-18T05:15:42;8.75;;;6.07;;
70985;SDS011;58645;43.068;25.610;2023-09-18T05:18:11;8.73;;;5.63;;
70985;SDS011;58645;43.068;25.610;2023-09-18T05:20:38;8.93;;;5.10;;
70985;SDS011;58645;43.068;25.610;2023-09-18T05:23:04;10.07;;;6.10;;
70985;SDS011;58645;43.068;25.610;2023-09-18T05:25:30;10.63;;;6.03;;
70985;SDS011;58645;43.068;25.610;2023-09-18T05:27:58;8.18;;;5.97;;
70985;SDS011;58645;43.068;25.610;2023-09-18T05:30:25;9.27;;;6.40;;
70985;SDS011;58645;43.068;25.610;2023-09-18T05:32:56;9.63;;;6.15;;
70985;SDS011;58645;43.068;25.610;2023-09-18T05:35:29;9.38;;;5.78;;
70985;SDS011;58645;43.068;25.610;2023-09-18T05:37:58;9.82;;;5.35;;
70985;SDS011;58645;43.068;25.610;2023-09-18T05:40:25;6.75;;;4.47;;
70985;SDS011;58645;43.068;25.610;2023-09-18T05:42:53;7.65;;;4.95;;
70985;SDS011;58645;43.068;25.610;2023-09-18T05:45:19;9.25;;;5.80;;
70985;SDS011;58645;43.068;25.610;2023-09-18T05:50:12;8.88;;;4.80;;
70985;SDS011;58645;43.068;25.610;2023-09-18T05:52:45;8.30;;;4.20;;
70985;SDS011;58645;43.068;25.610;2023-09-18T05:55:12;7.43;;;4.97;;
70985;SDS011;58645;43.068;25.610;2023-09-18T05:57:41;9.15;;;4.18;;
70985;SDS011;58645;43.068;25.610;2023-09-18T06:00:07;6.97;;;4.40;;
70985;SDS011;58645;43.068;25.610;2023-09-18T06:02:38;5.60;;;4.07;;
70985;SDS011;58645;43.068;25.610;2023-09-18T06:05:07;4.75;;;4.00;;
70985;SDS011;58645;43.068;25.610;2023-09-18T06:07:36;6.03;;;3.60;;
70985;SDS011;58645;43.068;25.610;2023-09-18T06:10:02;6.47;;;3.92;;
70985;SDS011;58645;43.068;25.610;2023-09-18T06:12:28;7.95;;;4.47;;
70985;SDS011;58645;43.068;25.610;2023-09-18T06:14:54;12.00;;;6.88;;
70985;SDS011;58645;43.068;25.610;2023-09-18T06:17:20;11.90;;;5.40;;
70985;SDS011;58645;43.068;25.610;2023-09-18T06:19:46;6.30;;;5.38;;
70985;SDS011;58645;43.068;25.610;2023-09-18T06:22:12;8.48;;;4.40;;
70985;SDS011;58645;43.068;25.610;2023-09-18T06:24:38;7.00;;;3.60;;
70985;SDS011;58645;43.068;25.610;2023-09-18T06:27:05;7.45;;;4.00;;
70985;SDS011;58645;43.068;25.610;2023-09-18T06:29:32;6.65;;;3.80;;
70985;SDS011;58645;43.068;25.610;2023-09-18T06:31:58;7.57;;;3.85;;
70985;SDS011;58645;43.068;25.610;2023-09-18T06:34:24;6.82;;;3.72;;
70985;SDS011;58645;43.068;25.610;2023-09-18T06:36:50;6.18;;;2.95;;
70985;SDS011;58645;43.068;25.610;2023-09-18T06:39:16;6.28;;;2.50;;
70985;SDS011;58645;43.068;25.610;2023-09-18T06:41:42;5.07;;;3.05;;
70985;SDS011;58645;43.068;25.610;2023-09-18T06:44:08;5.70;;;2.60;;
70985;SDS011;58645;43.068;25.610;2023-09-18T06:46:34;5.57;;;3.42;;
70985;SDS011;58645;43.068;25.610;2023-09-18T06:48:59;6.85;;;3.15;;
70985;SDS011;58645;43.068;25.610;2023-09-18T06:51:29;5.95;;;2.88;;
70985;SDS011;58645;43.068;25.610;2023-09-18T06:53:55;7.07;;;3.40;;
70985;SDS011;58645;43.068;25.610;2023-09-18T06:56:22;5.60;;;3.10;;
70985;SDS011;58645;43.068;25.610;2023-09-18T06:58:49;8.13;;;3.50;;
70985;SDS011;58645;43.068;25.610;2023-09-18T07:01:19;6.13;;;3.05;;
70985;SDS011;58645;43.068;25.610;2023-09-18T07:03:48;7.25;;;2.67;;
70985;SDS011;58645;43.068;25.610;2023-09-18T07:06:15;4.05;;;2.80;;
70985;SDS011;58645;43.068;25.610;2023-09-18T07:08:44;7.38;;;2.88;;
70985;SDS011;58645;43.068;25.610;2023-09-18T07:11:10;5.85;;;2.58;;
70985;SDS011;58645;43.068;25.610;2023-09-18T07:13:37;4.90;;;2.33;;
70985;SDS011;58645;43.068;25.610;2023-09-18T07:16:03;3.28;;;1.77;;
70985;SDS011;58645;43.068;25.610;2023-09-18T07:18:31;8.50;;;1.75;;
70985;SDS011;58645;43.068;25.610;2023-09-18T07:20:58;2.78;;;1.45;;
70985;SDS011;58645;43.068;25.610;2023-09-18T07:23:23;3.83;;;1.48;;
70985;SDS011;58645;43.068;25.610;2023-09-18T07:25:49;3.53;;;1.63;;
70985;SDS011;58645;43.068;25.610;2023-09-18T07:28:15;3.67;;;2.00;;
70985;SDS011;58645;43.068;25.610;2023-09-18T07:30:48;3.42;;;1.75;;
70985;SDS011;58645;43.068;25.610;2023-09-18T07:33:14;2.40;;;1.50;;
70985;SDS011;58645;43.068;25.610;2023-09-18T07:35:46;3.00;;;1.73;;
70985;SDS011;58645;43.068;25.610;2023-09-18T07:38:16;3.80;;;1.77;;
70985;SDS011;58645;43.068;25.610;2023-09-18T07:40:53;2.50;;;1.50;;
70985;SDS011;58645;43.068;25.610;2023-09-18T07:43:19;2.08;;;1.52;;
70985;SDS011;58645;43.068;25.610;2023-09-18T07:45:45;2.35;;;1.92;;
70985;SDS011;58645;43.068;25.610;2023-09-18T07:48:11;4.75;;;1.48;;
70985;SDS011;58645;43.068;25.610;2023-09-18T07:50:37;3.58;;;1.33;;
70985;SDS011;58645;43.068;25.610;2023-09-18T07:53:08;2.97;;;1.85;;
70985;SDS011;58645;43.068;25.610;2023-09-18T07:55:34;2.70;;;1.40;;
70985;SDS011;58645;43.068;25.610;2023-09-18T07:58:00;2.85;;;1.52;;
70985;SDS011;58645;43.068;25.610;2023-09-18T08:00:25;8.30;;;1.50;;
70985;SDS011;58645;43.068;25.610;2023-09-18T08:02:52;3.00;;;1.70;;
70985;SDS011;58645;43.068;25.610;2023-09-18T08:05:23;2.47;;;1.88;;
70985;SDS011;58645;43.068;25.610;2023-09-18T08:07:53;2.95;;;1.33;;
70985;SDS011;58645;43.068;25.610;2023-09-18T08:10:21;3.63;;;2.03;;
70985;SDS011;58645;43.068;25.610;2023-09-18T08:12:49;2.83;;;1.73;;
70985;SDS011;58645;43.068;25.610;2023-09-18T08:15:17;3.05;;;1.50;;
70985;SDS011;58645;43.068;25.610;2023-09-18T08:17:47;6.25;;;1.83;;
70985;SDS011;58645;43.068;25.610;2023-09-18T08:20:15;4.43;;;1.80;;
70985;SDS011;58645;43.068;25.610;2023-09-18T08:22:42;3.25;;;2.22;;
70985;SDS011;58645;43.068;25.610;2023-09-18T08:25:10;2.80;;;1.90;;
70985;SDS011;58645;43.068;25.610;2023-09-18T08:28:03;2.60;;;1.75;;
70985;SDS011;58645;43.068;25.610;2023-09-18T08:30:30;3.03;;;1.90;;
70985;SDS011;58645;43.068;25.610;2023-09-18T08:32:56;3.13;;;1.80;;
70985;SDS011;58645;43.068;25.610;2023-09-18T08:35:22;2.88;;;2.20;;
70985;SDS011;58645;43.068;25.610;2023-09-18T08:37:48;2.50;;;1.85;;
70985;SDS011;58645;43.068;25.610;2023-09-18T08:40:14;4.00;;;2.40;;
70985;SDS011;58645;43.068;25.610;2023-09-18T08:42:40;3.88;;;2.50;;
70985;SDS011;58645;43.068;25.610;2023-09-18T08:48:18;3.00;;;2.70;;
70985;SDS011;58645;43.068;25.610;2023-09-18T08:50:45;5.95;;;2.25;;
70985;SDS011;58645;43.068;25.610;2023-09-18T08:53:13;4.97;;;2.30;;
70985;SDS011;58645;43.068;25.610;2023-09-18T08:55:40;2.50;;;2.22;;
70985;SDS011;58645;43.068;25.610;2023-09-18T08:58:08;3.50;;;2.33;;
70985;SDS011;58645;43.068;25.610;2023-09-18T09:00:36;4.03;;;2.53;;
70985;SDS011;58645;43.068;25.610;2023-09-18T09:03:03;5.53;;;2.65;;
70985;SDS011;58645;43.068;25.610;2023-09-18T09:05:29;3.90;;;2.75;;
70985;SDS011;58645;43.068;25.610;2023-09-18T09:07:56;4.68;;;3.20;;
70985;SDS011;58645;43.068;25.610;2023-09-18T09:10:22;3.67;;;2.47;;
70985;SDS011;58645;43.068;25.610;2023-09-18T09:15:25;3.80;;;2.60;;
70985;SDS011;58645;43.068;25.610;2023-09-18T09:18:04;6.85;;;2.45;;
70985;SDS011;58645;43.068;25.610;2023-09-18T09:20:31;3.67;;;2.22;;
70985;SDS011;58645;43.068;25.610;2023-09-18T09:23:03;3.65;;;2.53;;
70985;SDS011;58645;43.068;25.610;2023-09-18T09:25:32;3.63;;;1.83;;
70985;SDS011;58645;43.068;25.610;2023-09-18T09:27:59;3.75;;;2.70;;
70985;SDS011;58645;43.068;25.610;2023-09-18T09:30:30;5.55;;;3.22;;
70985;SDS011;58645;43.068;25.610;2023-09-18T09:32:57;3.33;;;2.70;;
70985;SDS011;58645;43.068;25.610;2023-09-18T09:38:01;4.07;;;2.80;;
70985;SDS011;58645;43.068;25.610;2023-09-18T09:40:40;4.90;;;2.85;;
70985;SDS011;58645;43.068;25.610;2023-09-18T09:43:11;4.07;;;2.85;;
70985;SDS011;58645;43.068;25.610;2023-09-18T09:45:41;4.28;;;3.28;;
70985;SDS011;58645;43.068;25.610;2023-09-18T09:48:07;3.28;;;2.40;;
70985;SDS011;58645;43.068;25.610;2023-09-18T09:50:34;4.68;;;3.35;;
70985;SDS011;58645;43.068;25.610;2023-09-18T09:53:13;3.90;;;2.72;;
70985;SDS011;58645;43.068;25.610;2023-09-18T09:55:39;5.05;;;2.97;;
70985;SDS011;58645;43.068;25.610;2023-09-18T09:58:07;3.72;;;2.95;;
70985;SDS011;58645;43.068;25.610;2023-09-18T10:00:38;3.83;;;3.17;;
70985;SDS011;58645;43.068;25.610;2023-09-18T10:03:09;4.85;;;3.00;;
70985;SDS011;58645;43.068;25.610;2023-09-18T10:05:40;4.03;;;2.72;;
70985;SDS011;58645;43.068;25.610;2023-09-18T10:08:08;4.50;;;2.80;;
70985;SDS011;58645;43.068;25.610;2023-09-18T10:10:50;5.55;;;2.63;;
70985;SDS011;58645;43.068;25.610;2023-09-18T10:13:17;4.65;;;3.42;;
70985;SDS011;58645;43.068;25.610;2023-09-18T10:15:47;6.35;;;3.10;;
70985;SDS011;58645;43.068;25.610;2023-09-18T10:20:53;3.90;;;3.28;;
70985;SDS011;58645;43.068;25.610;2023-09-18T10:23:34;4.13;;;2.55;;
70985;SDS011;58645;43.068;25.610;2023-09-18T10:26:20;3.25;;;2.72;;
70985;SDS011;58645;43.068;25.610;2023-09-18T10:28:55;4.93;;;3.20;;
70985;SDS011;58645;43.068;25.610;2023-09-18T10:31:27;4.35;;;3.42;;
70985;SDS011;58645;43.068;25.610;2023-09-18T10:33:55;4.70;;;2.75;;
70985;SDS011;58645;43.068;25.610;2023-09-18T10:36:26;4.10;;;3.20;;
70985;SDS011;58645;43.068;25.610;2023-09-18T10:38:54;4.18;;;2.70;;
70985;SDS011;58645;43.068;25.610;2023-09-18T10:41:21;7.30;;;3.55;;
70985;SDS011;58645;43.068;25.610;2023-09-18T10:43:51;4.30;;;2.53;;
70985;SDS011;58645;43.068;25.610;2023-09-18T10:46:19;4.82;;;2.45;;
70985;SDS011;58645;43.068;25.610;2023-09-18T10:48:46;3.55;;;2.78;;
70985;SDS011;58645;43.068;25.610;2023-09-18T10:51:12;5.68;;;3.10;;
70985;SDS011;58645;43.068;25.610;2023-09-18T10:53:39;4.18;;;2.53;;
70985;SDS011;58645;43.068;25.610;2023-09-18T10:56:06;6.95;;;2.47;;
70985;SDS011;58645;43.068;25.610;2023-09-18T10:58:32;6.05;;;3.03;;
70985;SDS011;58645;43.068;25.610;2023-09-18T11:01:07;4.15;;;2.45;;
70985;SDS011;58645;43.068;25.610;2023-09-18T11:03:37;5.22;;;2.53;;
70985;SDS011;58645;43.068;25.610;2023-09-18T11:06:04;5.13;;;2.40;;
70985;SDS011;58645;43.068;25.610;2023-09-18T11:08:33;3.90;;;2.70;;
70985;SDS011;58645;43.068;25.610;2023-09-18T11:11:07;3.35;;;2.38;;
70985;SDS011;58645;43.068;25.610;2023-09-18T11:13:45;3.17;;;2.47;;
70985;SDS011;58645;43.068;25.610;2023-09-18T11:21:26;4.53;;;2.47;;
70985;SDS011;58645;43.068;25.610;2023-09-18T11:24:00;4.72;;;2.53;;
70985;SDS011;58645;43.068;25.610;2023-09-18T11:29:00;3.15;;;2.40;;
70985;SDS011;58645;43.068;25.610;2023-09-18T11:34:14;5.40;;;3.25;;
70985;SDS011;58645;43.068;25.610;2023-09-18T11:36:44;2.78;;;2.25;;
70985;SDS011;58645;43.068;25.610;2023-09-18T11:39:12;3.75;;;2.65;;
70985;SDS011;58645;43.068;25.610;2023-09-18T11:41:38;4.00;;;2.35;;
70985;SDS011;58645;43.068;25.610;2023-09-18T11:46:39;5.03;;;2.22;;
70985;SDS011;58645;43.068;25.610;2023-09-18T11:49:13;3.75;;;2.95;;
70985;SDS011;58645;43.068;25.610;2023-09-18T11:51:39;3.83;;;2.03;;
70985;SDS011;58645;43.068;25.610;2023-09-18T11:54:07;2.95;;;2.40;;
70985;SDS011;58645;43.068;25.610;2023-09-18T11:56:34;4.55;;;2.75;;
70985;SDS011;58645;43.068;25.610;2023-09-18T11:59:00;4.13;;;1.95;;
70985;SDS011;58645;43.068;25.610;2023-09-18T12:01:30;2.67;;;2.15;;
70985;SDS011;58645;43.068;25.610;2023-09-18T12:04:03;4.78;;;2.33;;
70985;SDS011;58645;43.068;25.610;2023-09-18T12:06:33;3.35;;;2.10;;
70985;SDS011;58645;43.068;25.610;2023-09-18T12:09:00;3.08;;;1.88;;
70985;SDS011;58645;43.068;25.610;2023-09-18T12:11:26;3.20;;;2.00;;
70985;SDS011;58645;43.068;25.610;2023-09-18T12:13:52;3.83;;;2.38;;
70985;SDS011;58645;43.068;25.610;2023-09-18T12:16:18;3.13;;;2.00;;
70985;SDS011;58645;43.068;25.610;2023-09-18T12:18:44;3.35;;;2.90;;
70985;SDS011;58645;43.068;25.610;2023-09-18T12:21:12;4.30;;;2.22;;
70985;SDS011;58645;43.068;25.610;2023-09-18T12:23:40;3.25;;;2.15;;
70985;SDS011;58645;43.068;25.610;2023-09-18T12:26:10;5.32;;;2.50;;
70985;SDS011;58645;43.068;25.610;2023-09-18T12:28:38;3.60;;;2.17;;
70985;SDS011;58645;43.068;25.610;2023-09-18T12:31:05;3.92;;;2.00;;
70985;SDS011;58645;43.068;25.610;2023-09-18T12:33:35;4.07;;;2.05;;
70985;SDS011;58645;43.068;25.610;2023-09-18T12:36:05;2.42;;;1.75;;
70985;SDS011;58645;43.068;25.610;2023-09-18T12:38:33;3.13;;;2.17;;
70985;SDS011;58645;43.068;25.610;2023-09-18T12:40:59;3.15;;;2.22;;
70985;SDS011;58645;43.068;25.610;2023-09-18T12:46:01;4.05;;;2.58;;
70985;SDS011;58645;43.068;25.610;2023-09-18T12:48:29;4.32;;;2.78;;
70985;SDS011;58645;43.068;25.610;2023-09-18T12:50:54;3.45;;;2.28;;
70985;SDS011;58645;43.068;25.610;2023-09-18T12:53:23;3.67;;;2.65;;
70985;SDS011;58645;43.068;25.610;2023-09-18T12:55:49;4.80;;;2.15;;
70985;SDS011;58645;43.068;25.610;2023-09-18T12:58:18;5.22;;;3.10;;
70985;SDS011;58645;43.068;25.610;2023-09-18T13:00:46;3.58;;;3.15;;
70985;SDS011;58645;43.068;25.610;2023-09-18T13:03:14;4.10;;;2.65;;
70985;SDS011;58645;43.068;25.610;2023-09-18T13:05:40;4.10;;;2.15;;
70985;SDS011;58645;43.068;25.610;2023-09-18T13:08:06;3.75;;;2.83;;
70985;SDS011;58645;43.068;25.610;2023-09-18T13:11:07;4.03;;;2.80;;
70985;SDS011;58645;43.068;25.610;2023-09-18T13:13:28;3.92;;;2.15;;
70985;SDS011;58645;43.068;25.610;2023-09-18T13:15:57;3.75;;;2.30;;
70985;SDS011;58645;43.068;25.610;2023-09-18T13:18:24;3.60;;;2.53;;
70985;SDS011;58645;43.068;25.610;2023-09-18T13:20:51;4.03;;;2.30;;
70985;SDS011;58645;43.068;25.610;2023-09-18T13:23:17;3.50;;;2.53;;
70985;SDS011;58645;43.068;25.610;2023-09-18T13:25:46;3.65;;;2.55;;
70985;SDS011;58645;43.068;25.610;2023-09-18T13:28:13;4.20;;;2.88;;
70985;SDS011;58645;43.068;25.610;2023-09-18T13:30:40;4.38;;;2.45;;
70985;SDS011;58645;43.068;25.610;2023-09-18T13:33:11;4.55;;;2.72;;
70985;SDS011;58645;43.068;25.610;2023-09-18T13:35:41;3.03;;;2.25;;
70985;SDS011;58645;43.068;25.610;2023-09-18T13:38:09;3.83;;;2.83;;
70985;SDS011;58645;43.068;25.610;2023-09-18T13:40:42;4.70;;;2.80;;
70985;SDS011;58645;43.068;25.610;2023-09-18T13:43:11;4.30;;;2.33;;
70985;SDS011;58645;43.068;25.610;2023-09-18T13:45:40;4.30;;;3.20;;
70985;SDS011;58645;43.068;25.610;2023-09-18T13:48:07;4.15;;;3.05;;
70985;SDS011;58645;43.068;25.610;2023-09-18T13:50:33;3.92;;;2.30;;
70985;SDS011;58645;43.068;25.610;2023-09-18T13:53:01;4.57;;;2.33;;
70985;SDS011;58645;43.068;25.610;2023-09-18T13:55:29;4.43;;;2.40;;
70985;SDS011;58645;43.068;25.610;2023-09-18T13:57:55;3.85;;;2.63;;
70985;SDS011;58645;43.068;25.610;2023-09-18T14:00:21;4.15;;;2.70;;
70985;SDS011;58645;43.068;25.610;2023-09-18T14:02:47;3.72;;;2.45;;
70985;SDS011;58645;43.068;25.610;2023-09-18T14:05:13;4.38;;;2.97;;
70985;SDS011;58645;43.068;25.610;2023-09-18T14:10:06;4.20;;;2.22;;
70985;SDS011;58645;43.068;25.610;2023-09-18T14:12:32;5.65;;;2.97;;
70985;SDS011;58645;43.068;25.610;2023-09-18T14:14:58;4.90;;;2.67;;
70985;SDS011;58645;43.068;25.610;2023-09-18T14:17:25;5.03;;;2.45;;
70985;SDS011;58645;43.068;25.610;2023-09-18T14:19:51;3.97;;;3.10;;
70985;SDS011;58645;43.068;25.610;2023-09-18T14:22:18;4.75;;;3.20;;
70985;SDS011;58645;43.068;25.610;2023-09-18T14:24:44;3.55;;;2.25;;
70985;SDS011;58645;43.068;25.610;2023-09-18T14:27:10;6.05;;;3.47;;
70985;SDS011;58645;43.068;25.610;2023-09-18T14:29:37;6.15;;;2.97;;
70985;SDS011;58645;43.068;25.610;2023-09-18T14:34:29;6.28;;;3.15;;
70985;SDS011;58645;43.068;25.610;2023-09-18T14:39:21;4.93;;;2.60;;
70985;SDS011;58645;43.068;25.610;2023-09-18T14:41:47;4.22;;;3.17;;
70985;SDS011;58645;43.068;25.610;2023-09-18T14:44:13;4.45;;;3.38;;
70985;SDS011;58645;43.068;25.610;2023-09-18T14:46:39;4.45;;;3.20;;
70985;SDS011;58645;43.068;25.610;2023-09-18T14:49:05;3.67;;;2.88;;
70985;SDS011;58645;43.068;25.610;2023-09-18T14:51:34;5.90;;;3.40;;
70985;SDS011;58645;43.068;25.610;2023-09-18T14:54:00;4.03;;;3.05;;
70985;SDS011;58645;43.068;25.610;2023-09-18T14:56:29;4.80;;;2.85;;
70985;SDS011;58645;43.068;25.610;2023-09-18T14:58:55;3.40;;;2.90;;
70985;SDS011;58645;43.068;25.610;2023-09-18T15:01:21;4.95;;;3.20;;
70985;SDS011;58645;43.068;25.610;2023-09-18T15:03:47;3.60;;;3.10;;
70985;SDS011;58645;43.068;25.610;2023-09-18T15:06:16;4.25;;;2.95;;
70985;SDS011;58645;43.068;25.610;2023-09-18T15:08:42;3.80;;;3.00;;
70985;SDS011;58645;43.068;25.610;2023-09-18T15:11:08;4.63;;;3.15;;
70985;SDS011;58645;43.068;25.610;2023-09-18T15:13:35;4.80;;;3.25;;
70985;SDS011;58645;43.068;25.610;2023-09-18T15:18:27;6.15;;;3.30;;
70985;SDS011;58645;43.068;25.610;2023-09-18T15:23:21;4.88;;;3.50;;